Pagrindinis puslapis
METAR-TAF:

METAR-TAF

Oro uostai :

Uberlandija, Minas Žeraisas, Brazilija

platuma: 18-53S, ilguma: 048-14W, Aukštis: 943 m

Dabartinis oras

Ataskaita buvo paskelbta 1 valandą ir 13 minutes, ne 21:00 UTC
Vėjas 2 kt iš Pietų/Pietryčių
Temperatūra 23°C
Drėgmė 78%
Slėgis 1016 hPa
Matomumas 10 km arba daugiau
Mažai debesys ne aukštis 1500 ft

METAR: SBUL 212100Z 15002KT 9999 FEW015 23/19 Q1016

Laikas: 19:13 (22:13 UTC)

Prognozė

Ataskaita buvo paskelbta 7 valandos ir 13 minutes, ne 15:00 UTC
Prognozė galioja nuo 21 metu 18 UTC su 22 metu 06 UTC
Vėjas 5 kt iš Vakarų
Matomumas: 8000 m
Tikimybė 40%
nuo 21 metu 18 UTC su 21 metu 24 UTC
Vėjas 5 kt iš Pietų
Su prošvaistėmis ne aukštis 1500 ft
Mažai debesys ne aukštis 4000 ft, Liūtiniai kamuoliniai debesys.
perkūnija, lietus
Tapsmas
nuo 22 metu 01 UTC su 22 metu 03 UTC
Vėjas 5 kt nuo kintamojo kryptimis

TAF: SBUL 211500Z 2118/2206 28005KT 8000 BKN020TX26/2118Z TN21/2206Z PROB40 2118/2124 17005KT TSRA BKN015 FEW040CB BECMG 2201/2203 VRB05KT RMK PGH

Orai ataskaitas ir orų prognozės (METAR, TAF).

turimą stotys yra geltonos ir raudonos taškus žemėlapyje.

Perkelti pele per norėdami pamatyti stoties vardą.

Tada spustelėkite, norėdami matyti oro stebėjimo ir prognozės.

Norėdami pakeisti žemėlapį: spustelėkite ant žalios mygtukų su juodo kryžiaus žemyn,; žalią mygtuką su brūkšneliu, jei norite nutolinti; arba žalių rodyklių gretimoms žemėlapius.


METAR-TAF: